Time;durP1;ratioP1;P1;durP2;ratioP2;P2;SDS_P1;SDS_P2;PMS_P1;PMS_P2;Temp;Humidity;BMP_temperature;BMP_pressure;BME280_temperature;BME280_humidity;BME280_pressure;Samples;Min_cycle;Max_cycle;Signal;HPM_P1;HPM_P2
2022/10/05 00:00:13;;;;;;;57.42;46.50;;;19.70;1.00;;;;;;5091351;28;20499;-46
2022/10/05 00:02:39;;;;;;;61.33;49.72;;;19.70;1.00;;;;;;5084756;28;20031;-46
2022/10/05 00:05:24;;;;;;;59.38;49.65;;;19.70;1.00;;;;;;5080578;28;20028;-46
2022/10/05 00:07:51;;;;;;;64.63;51.17;;;19.70;1.00;;;;;;5091749;28;20111;-47
2022/10/05 00:10:18;;;;;;;71.47;54.17;;;19.60;1.00;;;;;;5091058;28;20027;-51
2022/10/05 00:12:45;;;;;;;65.28;52.28;;;19.50;1.00;;;;;;5091312;28;20047;-46
2022/10/05 00:15:13;;;;;;;68.63;55.53;;;19.60;1.00;;;;;;5090444;28;20024;-48
2022/10/05 00:17:41;;;;;;;63.90;51.63;;;19.60;1.00;;;;;;5083923;28;20462;-46
2022/10/05 00:20:22;;;;;;;65.20;52.17;;;19.50;1.00;;;;;;5093937;28;20032;-48
2022/10/05 00:22:51;;;;;;;66.05;54.13;;;19.50;1.00;;;;;;5082215;28;20035;-48
2022/10/05 00:25:19;;;;;;;68.15;54.47;;;19.40;1.00;;;;;;5092240;28;20028;-47
2022/10/05 00:27:55;;;;;;;71.28;56.17;;;19.40;1.00;;;;;;5093309;28;20024;-50
2022/10/05 00:30:22;;;;;;;75.03;58.42;;;19.50;1.00;;;;;;5089518;28;20162;-50
2022/10/05 00:32:47;;;;;;;69.72;57.15;;;19.40;1.00;;;;;;5087835;28;20035;-47
2022/10/05 00:35:15;;;;;;;69.88;55.80;;;19.40;1.00;;;;;;5089203;28;20024;-45
2022/10/05 00:37:42;;;;;;;68.65;56.38;;;19.40;1.00;;;;;;5092944;28;20322;-47
2022/10/05 00:40:26;;;;;;;70.70;57.95;;;19.40;1.00;;;;;;5092482;28;20024;-51
2022/10/05 00:43:15;;;;;;;79.00;62.35;;;19.30;1.00;;;;;;5084851;28;20039;-45
2022/10/05 00:46:07;;;;;;;72.82;61.15;;;19.30;1.00;;;;;;5080563;28;20167;-48
2022/10/05 00:48:38;;;;;;;72.63;58.97;;;19.30;1.00;;;;;;5086824;28;20026;-48
2022/10/05 00:51:16;;;;;;;72.15;61.05;;;19.30;1.00;;;;;;5085697;28;20039;-45
2022/10/05 00:54:03;;;;;;;76.32;59.45;;;19.30;1.00;;;;;;5092818;28;20039;-45
2022/10/05 00:56:29;;;;;;;75.22;59.40;;;19.30;1.00;;;;;;5079582;28;20089;-47
2022/10/05 00:59:18;;;;;;;80.53;60.65;;;19.30;1.00;;;;;;5089383;28;20028;-48
2022/10/05 01:02:01;;;;;;;73.28;59.10;;;19.20;1.00;;;;;;5084939;28;20142;-48
2022/10/05 01:04:36;;;;;;;75.22;59.33;;;19.20;1.00;;;;;;5088552;28;20027;-47
2022/10/05 01:07:04;;;;;;;;;;;19.20;1.00;;;;;;5088625;28;20020;-46
2022/10/05 01:09:30;;;;;;;75.18;61.00;;;19.10;1.00;;;;;;5077999;28;19908;-46
2022/10/05 01:12:07;;;;;;;75.80;60.35;;;19.10;1.00;;;;;;5082107;28;20055;-45
2022/10/05 01:14:47;;;;;;;75.45;61.50;;;19.00;1.00;;;;;;5092553;28;20168;-45
2022/10/05 01:17:30;;;;;;;72.13;58.83;;;19.10;1.00;;;;;;5088067;28;20131;-47
2022/10/05 01:19:59;;;;;;;70.07;56.63;;;19.00;1.00;;;;;;5089388;28;20039;-46
2022/10/05 01:22:58;;;;;;;79.07;59.65;;;19.00;1.00;;;;;;5088041;28;20024;-46
2022/10/05 01:25:27;;;;;;;73.68;60.95;;;19.00;1.00;;;;;;5089239;28;20021;-47
2022/10/05 01:28:20;;;;;;;74.10;58.85;;;19.10;1.00;;;;;;5092252;28;20031;-46
2022/10/05 01:30:56;;;;;;;71.63;57.97;;;19.10;1.00;;;;;;5082847;28;20031;-47
2022/10/05 01:33:32;;;;;;;68.45;56.80;;;19.00;1.00;;;;;;5092099;28;20054;-46
2022/10/05 01:36:09;;;;;;;70.30;55.47;;;19.10;1.00;;;;;;5082239;28;20035;-45
2022/10/05 01:38:57;;;;;;;75.35;59.58;;;19.00;1.00;;;;;;5083257;28;20025;-48
2022/10/05 01:41:36;;;;;;;73.28;57.78;;;19.00;1.00;;;;;;5089914;28;20024;-46
2022/10/05 01:44:15;;;;;;;69.80;58.28;;;19.00;1.00;;;;;;5088177;28;20048;-46
2022/10/05 01:47:05;;;;;;;68.03;57.67;;;18.90;1.00;;;;;;5089965;28;20614;-46
2022/10/05 01:49:58;;;;;;;67.65;55.92;;;19.00;1.00;;;;;;5089557;28;20016;-45
2022/10/05 01:52:42;;;;;;;68.82;55.60;;;19.00;1.00;;;;;;5084364;28;20757;-46
2022/10/05 01:55:32;;;;;;;70.97;57.97;;;19.10;1.00;;;;;;5088696;28;20059;-46
2022/10/05 01:57:57;;;;;;;76.45;57.38;;;19.00;1.00;;;;;;5074969;28;20462;-46
2022/10/05 02:00:23;;;;;;;69.45;56.00;;;19.00;1.00;;;;;;5092661;28;20048;-46
2022/10/05 02:03:20;;;;;;;68.28;56.22;;;19.00;1.00;;;;;;5077031;28;20111;-46
2022/10/05 02:05:53;;;;;;;65.25;56.17;;;19.00;1.00;;;;;;5090042;28;20532;-46
2022/10/05 02:08:31;;;;;;;69.00;58.05;;;19.10;1.00;;;;;;5086729;28;20481;-47
2022/10/05 02:11:14;;;;;;;67.55;57.00;;;19.00;1.00;;;;;;5089702;28;20172;-46
2022/10/05 02:13:54;;;;;;;69.38;54.08;;;19.00;1.00;;;;;;5088833;28;20027;-46
2022/10/05 02:16:22;;;;;;;72.82;57.75;;;18.90;1.00;;;;;;5092171;28;20139;-47
2022/10/05 02:19:10;;;;;;;63.53;53.13;;;18.90;1.00;;;;;;5089878;28;20354;-46
2022/10/05 02:21:36;;;;;;;68.43;57.22;;;19.00;1.00;;;;;;5082270;28;20029;-46
2022/10/05 02:24:07;;;;;;;63.28;53.85;;;18.90;1.00;;;;;;5088043;28;20111;-46
2022/10/05 02:26:35;;;;;;;64.63;55.17;;;19.00;1.00;;;;;;5086524;28;20024;-46
2022/10/05 02:29:08;;;;;;;71.22;55.25;;;19.00;1.00;;;;;;5089426;28;20032;-47
2022/10/05 02:31:41;;;;;;;65.90;53.38;;;19.00;1.00;;;;;;5085466;28;20379;-47
2022/10/05 02:34:22;;;;;;;61.22;52.00;;;19.00;1.00;;;;;;5087723;28;20028;-46
2022/10/05 02:37:33;;;;;;;62.78;52.15;;;18.90;1.00;;;;;;5082210;28;20082;-48
2022/10/05 02:40:10;;;;;;;61.67;53.08;;;19.00;1.00;;;;;;5085263;28;20397;-46
2022/10/05 02:42:39;;;;;;;59.13;51.17;;;18.90;1.00;;;;;;5083625;28;20524;-46
2022/10/05 02:45:20;;;;;;;59.22;50.65;;;19.00;1.00;;;;;;5085743;28;20020;-46
2022/10/05 02:48:08;;;;;;;56.65;50.25;;;19.00;1.00;;;;;;5091279;28;20039;-46
2022/10/05 02:50:46;;;;;;;58.00;49.47;;;19.00;1.00;;;;;;5090096;28;20038;-48
2022/10/05 02:53:37;;;;;;;59.53;48.72;;;19.00;1.00;;;;;;5087269;28;20048;-46
2022/10/05 02:56:33;;;;;;;57.33;47.65;;;19.00;1.00;;;;;;5075069;28;20429;-46
2022/10/05 02:59:32;;;;;;;57.17;47.75;;;19.00;1.00;;;;;;5090520;28;20119;-46
2022/10/05 03:02:25;;;;;;;54.17;47.85;;;19.00;1.00;;;;;;5088476;28;20028;-45
2022/10/05 03:05:18;;;;;;;61.40;51.92;;;19.00;1.00;;;;;;5092729;28;20036;-46
2022/10/05 03:08:17;;;;;;;58.75;49.42;;;19.00;1.00;;;;;;5088649;28;20032;-46
2022/10/05 03:10:51;;;;;;;59.42;49.17;;;18.90;1.00;;;;;;5088473;28;20039;-46
2022/10/05 03:13:35;;;;;;;57.45;48.50;;;19.00;1.00;;;;;;5083907;28;20024;-46
2022/10/05 03:16:15;;;;;;;61.40;49.47;;;19.00;1.00;;;;;;5088758;28;20032;-47
2022/10/05 03:19:01;;;;;;;56.60;47.22;;;18.90;1.00;;;;;;5088157;28;20020;-46
2022/10/05 03:21:37;;;;;;;57.28;48.78;;;19.00;1.00;;;;;;5085180;28;20089;-47
2022/10/05 03:24:34;;;;;;;56.60;48.20;;;18.90;1.00;;;;;;5090270;28;20099;-46
2022/10/05 03:27:30;;;;;;;54.15;45.65;;;18.90;1.00;;;;;;5080987;28;20021;-48
2022/10/05 03:30:04;;;;;;;56.80;46.63;;;18.90;1.00;;;;;;5082732;28;20035;-46
2022/10/05 03:32:29;;;;;;;55.33;45.20;;;19.00;1.00;;;;;;5078807;28;20024;-46
2022/10/05 03:35:16;;;;;;;61.58;47.08;;;19.00;1.00;;;;;;5082027;28;20033;-48
2022/10/05 03:37:54;;;;;;;58.10;46.53;;;19.00;1.00;;;;;;5080143;28;20040;-56
2022/10/05 03:40:35;;;;;;;53.85;45.50;;;19.00;1.00;;;;;;5091403;28;20431;-47
2022/10/05 03:43:35;;;;;;;56.85;45.38;;;19.00;1.00;;;;;;5086656;28;20032;-47
2022/10/05 03:46:07;;;;;;;49.90;42.75;;;19.00;1.00;;;;;;5082098;28;20074;-52
2022/10/05 03:48:41;;;;;;;57.13;47.85;;;19.00;1.00;;;;;;5072584;28;20037;-52
2022/10/05 03:51:15;;;;;;;53.33;44.45;;;19.00;1.00;;;;;;5089409;28;20047;-52
2022/10/05 03:53:46;;;;;;;49.10;43.75;;;19.00;1.00;;;;;;5087165;28;20032;-48
2022/10/05 03:56:31;;;;;;;56.08;47.95;;;19.00;1.00;;;;;;5087517;28;20040;-48
2022/10/05 03:59:04;;;;;;;49.30;43.67;;;19.00;1.00;;;;;;5087323;28;20482;-47
2022/10/05 04:01:38;;;;;;;51.97;44.22;;;19.00;1.00;;;;;;5092095;28;20473;-47
2022/10/05 04:04:08;;;;;;;52.45;43.13;;;19.00;1.00;;;;;;5085183;28;20024;-48
2022/10/05 04:06:40;;;;;;;47.53;42.05;;;18.90;1.00;;;;;;5082979;28;20073;-50
2022/10/05 04:09:22;;;;;;;53.17;44.50;;;19.00;1.00;;;;;;5089528;28;20055;-47
2022/10/05 04:12:01;;;;;;;51.58;42.90;;;19.00;1.00;;;;;;5087600;28;20353;-47
2022/10/05 04:15:01;;;;;;;52.75;44.50;;;18.90;1.00;;;;;;5084605;28;20020;-51
2022/10/05 04:17:41;;;;;;;51.63;41.92;;;18.90;1.00;;;;;;5061358;28;20101;-46
2022/10/05 04:20:28;;;;;;;50.28;41.90;;;18.90;1.00;;;;;;5092123;28;20123;-48
2022/10/05 04:22:56;;;;;;;52.58;42.95;;;19.00;1.00;;;;;;5087067;28;20103;-51
2022/10/05 04:25:31;;;;;;;51.65;43.28;;;18.90;1.00;;;;;;5089126;28;20036;-46
2022/10/05 04:28:10;;;;;;;50.10;42.30;;;18.90;1.00;;;;;;5088334;28;20393;-47
2022/10/05 04:30:41;;;;;;;48.72;42.10;;;18.80;1.00;;;;;;5093148;28;20565;-48
2022/10/05 04:33:11;;;;;;;54.67;43.00;;;18.90;1.00;;;;;;5093010;28;20477;-46
2022/10/05 04:36:13;;;;;;;54.08;42.25;;;18.90;1.00;;;;;;5091929;28;20066;-53
2022/10/05 04:39:05;;;;;;;50.10;40.88;;;18.90;1.00;;;;;;5087609;28;20028;-50
2022/10/05 04:41:49;;;;;;;50.80;40.53;;;18.80;1.00;;;;;;5082713;28;20040;-50
2022/10/05 04:44:42;;;;;;;47.60;42.22;;;18.90;1.00;;;;;;5092425;28;20035;-47
2022/10/05 04:47:26;;;;;;;49.13;40.20;;;18.80;1.00;;;;;;5091030;28;20103;-46
2022/10/05 04:50:03;;;;;;;52.67;43.03;;;18.90;1.00;;;;;;5078400;28;20023;-48
2022/10/05 04:52:32;;;;;;;45.90;40.72;;;18.80;1.00;;;;;;5082085;28;20083;-50
2022/10/05 04:55:38;;;;;;;46.85;39.90;;;18.90;1.00;;;;;;5085427;28;20119;-48
2022/10/05 04:58:26;;;;;;;46.53;37.25;;;18.90;1.00;;;;;;5080289;28;20048;-46
2022/10/05 05:01:12;;;;;;;45.22;38.58;;;18.80;1.00;;;;;;5087849;28;20487;-46
2022/10/05 05:03:47;;;;;;;44.22;37.25;;;18.90;1.00;;;;;;5086774;28;20032;-47
2022/10/05 05:06:37;;;;;;;47.33;39.47;;;18.90;1.00;;;;;;5092219;28;20466;-49
2022/10/05 05:09:08;;;;;;;48.50;38.95;;;18.90;1.00;;;;;;5091117;28;20055;-50
2022/10/05 05:12:06;;;;;;;47.67;38.50;;;18.90;1.00;;;;;;5080627;28;20027;-51
2022/10/05 05:14:44;;;;;;;47.58;40.13;;;18.80;1.00;;;;;;5089244;28;20464;-46
2022/10/05 05:17:10;;;;;;;44.55;37.88;;;18.80;1.00;;;;;;5094032;28;20532;-52
2022/10/05 05:19:40;;;;;;;44.78;37.75;;;18.80;1.00;;;;;;5092545;28;20111;-49
2022/10/05 05:22:19;;;;;;;48.67;38.42;;;18.90;1.00;;;;;;5092118;28;20531;-48
2022/10/05 05:25:26;;;;;;;45.80;37.67;;;18.80;1.00;;;;;;5088102;28;20473;-49
2022/10/05 05:28:00;;;;;;;45.28;36.53;;;18.90;1.00;;;;;;5040856;28;20029;-47
2022/10/05 05:30:51;;;;;;;44.08;36.83;;;18.90;1.00;;;;;;5083524;28;20036;-46
2022/10/05 05:33:39;;;;;;;46.78;37.08;;;18.90;1.00;;;;;;5091687;28;20035;-51
2022/10/05 05:36:33;;;;;;;44.13;35.03;;;18.90;1.00;;;;;;5083827;28;20044;-46
2022/10/05 05:39:23;;;;;;;43.25;35.25;;;18.70;1.00;;;;;;5087439;28;20024;-46
2022/10/05 05:41:58;;;;;;;43.13;37.55;;;18.70;1.00;;;;;;5088151;28;20043;-47
2022/10/05 05:44:40;;;;;;;43.45;35.33;;;18.70;1.00;;;;;;5091888;28;20172;-46
2022/10/05 05:47:17;;;;;;;41.67;35.63;;;18.70;1.00;;;;;;5087477;28;20050;-46
2022/10/05 05:49:57;;;;;;;43.40;35.25;;;18.70;1.00;;;;;;5088042;28;20481;-46
2022/10/05 05:52:49;;;;;;;46.45;34.65;;;18.60;1.00;;;;;;5088784;28;20055;-46
2022/10/05 05:55:21;;;;;;;43.88;34.83;;;18.70;1.00;;;;;;5085750;28;20039;-46
2022/10/05 05:57:55;;;;;;;41.08;34.00;;;18.70;1.00;;;;;;5084350;28;20156;-46
2022/10/05 06:00:27;;;;;;;42.70;34.22;;;18.70;1.00;;;;;;5087639;28;20020;-46
2022/10/05 06:03:14;;;;;;;39.00;32.28;;;18.70;1.00;;;;;;5092719;28;20068;-46
2022/10/05 06:05:47;;;;;;;40.25;33.42;;;18.70;1.00;;;;;;5087599;28;20032;-47
2022/10/05 06:08:31;;;;;;;38.60;31.92;;;18.70;1.00;;;;;;5077429;28;20060;-46
2022/10/05 06:11:19;;;;;;;39.97;33.58;;;18.70;1.00;;;;;;5078002;28;20071;-47
2022/10/05 06:13:46;;;;;;;37.92;32.10;;;18.70;1.00;;;;;;5078697;28;20397;-46
2022/10/05 06:16:24;;;;;;;34.70;29.80;;;18.70;1.00;;;;;;5080096;28;20047;-46
2022/10/05 06:19:09;;;;;;;36.85;30.27;;;18.70;1.00;;;;;;5088095;28;20028;-46
2022/10/05 06:21:50;;;;;;;36.28;29.70;;;18.70;1.00;;;;;;5092062;28;20099;-46
2022/10/05 06:24:24;;;;;;;40.42;29.92;;;18.80;1.00;;;;;;5093107;28;20024;-47
2022/10/05 06:27:35;;;;;;;32.45;28.95;;;18.80;1.00;;;;;;5090491;28;20031;-46
2022/10/05 06:30:06;;;;;;;35.03;27.38;;;18.80;1.00;;;;;;5080532;28;20067;-48
2022/10/05 06:32:59;;;;;;;35.78;27.88;;;18.80;1.00;;;;;;5084262;28;20058;-49
2022/10/05 06:35:46;;;;;;;32.53;27.73;;;18.80;1.00;;;;;;5093023;28;20103;-51
2022/10/05 06:38:41;;;;;;;33.25;28.75;;;18.90;1.00;;;;;;5088724;28;20073;-51
2022/10/05 06:41:18;;;;;;;34.78;28.55;;;18.90;1.00;;;;;;5090170;28;20024;-48
2022/10/05 06:44:09;;;;;;;32.05;26.70;;;18.80;1.00;;;;;;5084632;28;20032;-48
2022/10/05 06:46:46;;;;;;;32.30;28.33;;;18.90;1.00;;;;;;5074943;28;20028;-50
2022/10/05 06:49:36;;;;;;;32.97;27.08;;;18.90;1.00;;;;;;5079479;28;20029;-46
2022/10/05 06:52:22;;;;;;;27.17;24.13;;;18.80;1.00;;;;;;5078534;28;20506;-46
2022/10/05 06:55:10;;;;;;;28.83;24.30;;;18.90;1.00;;;;;;5092362;28;20035;-51
2022/10/05 06:57:54;;;;;;;27.40;23.33;;;18.90;1.00;;;;;;5082409;28;20047;-47
2022/10/05 07:00:28;;;;;;;29.95;21.52;;;18.90;1.00;;;;;;5091712;28;20448;-51
2022/10/05 07:03:02;;;;;;;29.63;21.30;;;18.90;1.00;;;;;;5091322;28;20035;-49
2022/10/05 07:06:09;;;;;;;28.08;21.20;;;19.00;1.00;;;;;;5078482;28;20022;-46
2022/10/05 07:09:03;;;;;;;26.15;20.13;;;19.10;1.00;;;;;;5091409;28;20031;-46
2022/10/05 07:11:41;;;;;;;27.20;22.65;;;19.10;1.00;;;;;;5088420;28;20373;-45
2022/10/05 07:14:48;;;;;;;26.52;22.58;;;19.10;1.00;;;;;;5087491;28;20032;-48
2022/10/05 07:17:32;;;;;;;26.63;21.33;;;19.10;1.00;;;;;;5070897;28;20040;-50
2022/10/05 07:20:45;;;;;;;25.80;21.63;;;19.30;1.00;;;;;;5082051;28;20112;-46
2022/10/05 07:23:27;;;;;;;26.73;21.10;;;19.30;1.00;;;;;;5083408;28;20097;-49
2022/10/05 07:25:59;;;;;;;28.70;20.52;;;19.30;1.00;;;;;;5091690;28;20111;-48
2022/10/05 07:28:36;;;;;;;23.38;20.45;;;19.30;1.00;;;;;;5090339;28;20438;-49
2022/10/05 07:31:26;;;;;;;26.77;19.95;;;19.40;1.00;;;;;;5092090;28;20099;-48
2022/10/05 07:34:17;;;;;;;22.35;19.42;;;19.40;1.00;;;;;;5075013;28;20505;-49
2022/10/05 07:39:59;;;;;;;23.20;16.98;;;19.50;1.00;;;;;;5090643;28;20085;-47
2022/10/05 07:42:51;;;;;;;21.83;19.45;;;19.50;1.00;;;;;;5091078;28;20042;-48
2022/10/05 07:45:34;;;;;;;23.80;19.75;;;19.50;1.00;;;;;;5083969;28;20035;-49
2022/10/05 07:48:44;;;;;;;24.83;19.45;;;19.50;1.00;;;;;;5091039;28;20111;-49
2022/10/05 07:51:30;;;;;;;24.40;19.33;;;19.60;1.00;;;;;;5091554;28;20067;-47
2022/10/05 07:54:04;;;;;;;27.95;20.13;;;19.60;1.00;;;;;;5090894;28;20486;-48
2022/10/05 07:56:40;;;;;;;25.85;19.23;;;19.60;1.00;;;;;;5090894;28;20512;-52
2022/10/05 07:59:16;;;;;;;24.17;19.98;;;19.60;1.00;;;;;;5090886;28;20381;-51
2022/10/05 08:01:48;;;;;;;21.90;18.95;;;19.60;1.00;;;;;;5093848;28;20096;-48
2022/10/05 08:04:20;;;;;;;22.52;18.15;;;19.60;1.00;;;;;;5094788;28;20031;-49
2022/10/05 08:06:47;;;;;;;27.60;20.92;;;19.60;1.00;;;;;;5095975;28;20032;-50
2022/10/05 08:09:18;;;;;;;29.88;20.90;;;19.60;1.00;;;;;;5092298;28;20444;-49
2022/10/05 08:11:47;;;;;;;24.33;20.23;;;19.70;1.00;;;;;;5095672;28;20527;-49
2022/10/05 08:14:30;;;;;;;30.13;23.08;;;19.70;1.00;;;;;;5094080;28;20107;-50
2022/10/05 08:16:59;;;;;;;25.45;22.30;;;19.60;1.00;;;;;;5095047;28;20040;-48
2022/10/05 08:19:49;;;;;;;23.60;20.70;;;19.60;1.00;;;;;;5094572;28;20051;-51
2022/10/05 08:22:24;;;;;;;23.63;20.23;;;19.70;1.00;;;;;;5095448;28;20024;-47
2022/10/05 08:24:58;;;;;;;28.80;22.25;;;19.80;1.00;;;;;;5094338;28;20035;-50
2022/10/05 08:27:51;;;;;;;29.02;22.40;;;19.80;1.00;;;;;;5094945;28;20099;-51
2022/10/05 08:30:18;;;;;;;24.33;18.58;;;19.90;1.00;;;;;;5093132;28;20020;-47
2022/10/05 08:33:03;;;;;;;21.95;18.48;;;19.80;1.00;;;;;;5095332;28;20024;-47
2022/10/05 08:35:36;;;;;;;;;;;19.80;1.00;;;;;;5091015;28;20034;-48
2022/10/05 08:38:11;;;;;;;21.70;18.70;;;20.00;1.00;;;;;;5094643;28;19904;-48
2022/10/05 08:40:59;;;;;;;20.98;17.25;;;20.10;1.00;;;;;;5077460;28;20394;-47
2022/10/05 08:43:34;;;;;;;22.80;17.95;;;20.20;1.00;;;;;;5082381;28;20093;-47
2022/10/05 08:46:26;;;;;;;20.50;17.20;;;20.20;1.00;;;;;;5095060;28;20028;-49
2022/10/05 08:49:19;;;;;;;18.63;16.70;;;20.20;1.00;;;;;;5082944;28;20032;-50
2022/10/05 08:52:00;;;;;;;23.55;17.20;;;20.40;1.00;;;;;;5093673;28;20040;-49
2022/10/05 08:55:25;;;;;;;19.35;16.67;;;20.40;1.00;;;;;;5093085;28;20031;-48
2022/10/05 08:58:25;;;;;;;18.23;16.10;;;20.60;1.00;;;;;;5067371;28;20045;-52
2022/10/05 09:01:03;;;;;;;19.35;15.48;;;20.70;1.00;;;;;;5084317;28;20032;-49
2022/10/05 09:03:44;;;;;;;18.38;15.15;;;20.70;1.00;;;;;;5091464;28;20032;-52
2022/10/05 09:06:22;;;;;;;18.33;15.77;;;20.70;1.00;;;;;;5090864;28;20453;-50
2022/10/05 09:09:05;;;;;;;19.55;14.55;;;20.90;1.00;;;;;;5075019;28;20028;-52
2022/10/05 09:11:37;;;;;;;15.83;13.07;;;20.90;1.00;;;;;;5080721;28;20500;-48
2022/10/05 09:14:34;;;;;;;21.38;14.55;;;20.90;1.00;;;;;;5078379;28;20013;-51
2022/10/05 09:17:21;;;;;;;17.15;15.18;;;21.00;1.00;;;;;;5082010;28;20040;-48
2022/10/05 09:20:05;;;;;;;15.93;12.50;;;21.00;1.00;;;;;;5083175;28;20059;-48
2022/10/05 09:22:48;;;;;;;18.13;13.30;;;21.10;1.00;;;;;;5084940;28;20024;-49
2022/10/05 09:25:19;;;;;;;14.55;11.20;;;21.10;1.00;;;;;;5080487;28;20098;-49
2022/10/05 09:27:54;;;;;;;13.45;12.05;;;21.10;1.00;;;;;;5091528;28;20028;-51
2022/10/05 09:30:48;;;;;;;18.52;13.70;;;21.10;1.00;;;;;;5086709;28;20091;-50
2022/10/05 09:33:13;;;;;;;14.35;12.10;;;21.10;1.00;;;;;;5085317;28;20016;-50
2022/10/05 09:36:01;;;;;;;18.38;14.80;;;21.20;1.00;;;;;;5078313;28;20042;-51
2022/10/05 09:38:56;;;;;;;15.77;13.88;;;21.20;1.00;;;;;;5081787;28;20119;-52
2022/10/05 09:41:50;;;;;;;16.52;13.48;;;21.30;1.00;;;;;;5082981;28;20115;-46
2022/10/05 09:44:40;;;;;;;15.43;13.68;;;21.40;1.00;;;;;;5079576;28;20059;-49
2022/10/05 09:47:11;;;;;;;14.85;13.35;;;21.50;1.00;;;;;;5084325;28;20039;-50
2022/10/05 09:49:58;;;;;;;16.92;15.15;;;21.60;1.00;;;;;;5082436;28;20028;-49
2022/10/05 09:53:01;;;;;;;17.42;14.02;;;21.70;1.00;;;;;;5084965;28;20055;-51
2022/10/05 09:55:54;;;;;;;19.15;14.95;;;21.80;1.00;;;;;;5084196;28;20196;-48
2022/10/05 09:59:06;;;;;;;16.48;14.07;;;21.80;1.00;;;;;;5085612;28;20058;-50
2022/10/05 10:01:56;;;;;;;16.98;13.90;;;21.90;1.00;;;;;;5089900;28;20035;-48
2022/10/05 10:04:42;;;;;;;19.88;17.77;;;22.00;1.00;;;;;;5074952;28;20020;-49
2022/10/05 10:07:55;;;;;;;17.33;15.50;;;22.00;1.00;;;;;;5073119;28;20278;-47
2022/10/05 10:10:59;;;;;;;18.90;15.38;;;22.10;1.00;;;;;;5075603;28;20036;-52
2022/10/05 10:13:52;;;;;;;17.30;14.65;;;22.20;1.00;;;;;;5078684;28;20040;-50
2022/10/05 10:16:36;;;;;;;16.95;14.32;;;22.30;1.00;;;;;;5085612;28;20176;-46
2022/10/05 10:19:13;;;;;;;18.67;13.83;;;22.40;1.00;;;;;;5092444;28;20370;-47
2022/10/05 10:22:09;;;;;;;18.33;16.08;;;22.50;1.00;;;;;;5088270;28;20048;-51
2022/10/05 10:24:56;;;;;;;19.55;17.30;;;22.50;1.00;;;;;;5084082;28;20154;-50
2022/10/05 10:27:53;;;;;;;18.42;16.38;;;22.50;1.00;;;;;;5077906;28;20467;-49
2022/10/05 10:30:37;;;;;;;20.30;18.10;;;22.60;1.00;;;;;;5084465;28;20031;-51
2022/10/05 10:33:40;;;;;;;17.92;15.80;;;22.60;1.00;;;;;;5090899;28;20038;-49
2022/10/05 10:36:31;;;;;;;18.73;16.85;;;22.60;1.00;;;;;;5092111;28;20062;-56
2022/10/05 10:39:21;;;;;;;20.90;16.52;;;22.60;1.00;;;;;;5090316;28;20311;-48
2022/10/05 10:42:11;;;;;;;18.52;16.38;;;22.70;1.00;;;;;;5080349;28;20036;-50
2022/10/05 10:44:46;;;;;;;17.77;15.57;;;22.60;1.00;;;;;;5087835;28;20044;-50
2022/10/05 10:47:23;;;;;;;18.23;16.27;;;22.70;1.00;;;;;;5088590;28;20019;-48
2022/10/05 10:50:27;;;;;;;17.25;15.57;;;22.70;1.00;;;;;;5084764;28;20029;-49
2022/10/05 10:53:23;;;;;;;19.75;14.40;;;22.70;1.00;;;;;;5091256;28;20126;-47
2022/10/05 10:55:52;;;;;;;19.65;16.40;;;22.60;1.00;;;;;;5076338;28;20064;-46
2022/10/05 10:58:36;;;;;;;16.77;14.85;;;22.40;1.00;;;;;;5091893;28;20081;-47
2022/10/05 11:01:23;;;;;;;18.52;16.33;;;22.30;1.00;;;;;;5088375;28;20607;-51
2022/10/05 11:04:16;;;;;;;18.88;16.20;;;22.30;1.00;;;;;;5081836;28;20449;-51
2022/10/05 11:07:11;;;;;;;19.88;17.70;;;22.30;1.00;;;;;;5091736;28;20024;-52
2022/10/05 11:10:16;;;;;;;20.67;18.23;;;22.30;1.00;;;;;;5070195;28;20043;-49
2022/10/05 11:13:03;;;;;;;20.27;18.33;;;22.40;1.00;;;;;;5088134;28;20032;-49
2022/10/05 11:16:22;;;;;;;23.38;18.83;;;22.50;1.00;;;;;;5082834;28;20048;-48
2022/10/05 11:19:24;;;;;;;25.05;20.23;;;22.60;1.00;;;;;;5049072;28;20029;-49
2022/10/05 11:22:15;;;;;;;22.95;18.80;;;22.70;1.00;;;;;;5078953;28;20032;-50
2022/10/05 11:24:53;;;;;;;24.40;21.02;;;22.70;1.00;;;;;;5090530;28;20063;-51
2022/10/05 11:27:45;;;;;;;22.38;20.00;;;22.70;1.00;;;;;;5091169;28;20059;-49
2022/10/05 11:30:13;;;;;;;24.92;22.35;;;22.80;1.00;;;;;;5070185;28;20044;-52
2022/10/05 11:33:00;;;;;;;30.02;24.33;;;22.90;1.00;;;;;;5091450;28;20016;-52
2022/10/05 11:35:35;;;;;;;24.33;21.75;;;23.00;1.00;;;;;;5081022;28;20024;-51
2022/10/05 11:38:08;;;;;;;23.90;21.38;;;22.90;1.00;;;;;;5095335;28;20043;-51
2022/10/05 11:40:55;;;;;;;24.27;21.73;;;22.90;1.00;;;;;;5093618;28;20020;-50
2022/10/05 11:43:23;;;;;;;24.80;22.13;;;23.00;1.00;;;;;;5084387;28;20132;-49
2022/10/05 11:45:49;;;;;;;26.65;21.67;;;23.10;1.00;;;;;;5094514;28;20111;-48
2022/10/05 11:48:40;;;;;;;22.90;20.60;;;23.20;1.00;;;;;;5095790;28;20513;-52
2022/10/05 11:51:27;;;;;;;22.35;19.35;;;23.20;1.00;;;;;;5090928;28;20028;-47
2022/10/05 11:54:08;;;;;;;20.92;18.02;;;23.30;1.00;;;;;;5081204;28;20044;-50
2022/10/05 11:56:58;;;;;;;25.65;22.98;;;23.40;1.00;;;;;;5081928;28;20039;-51
2022/10/05 11:59:56;;;;;;;26.42;22.85;;;23.50;1.00;;;;;;5089338;28;20100;-50
2022/10/05 12:02:54;;;;;;;26.00;21.70;;;23.50;1.00;;;;;;5077189;28;20127;-49
2022/10/05 12:05:37;;;;;;;24.52;21.58;;;23.60;1.00;;;;;;5083862;28;20112;-53
2022/10/05 12:08:08;;;;;;;24.23;20.40;;;23.70;1.00;;;;;;5090631;28;20358;-47
2022/10/05 12:10:50;;;;;;;26.60;22.88;;;23.70;1.00;;;;;;5093660;28;20035;-47
2022/10/05 12:13:38;;;;;;;31.00;23.42;;;23.80;1.00;;;;;;5095256;28;20032;-51
2022/10/05 12:16:12;;;;;;;26.15;22.00;;;23.90;1.00;;;;;;5094016;28;20020;-51
2022/10/05 12:18:50;;;;;;;27.63;21.45;;;24.10;1.00;;;;;;5093817;28;20032;-49
2022/10/05 12:21:40;;;;;;;21.00;18.63;;;24.40;1.00;;;;;;5093078;28;20362;-52
2022/10/05 12:24:19;;;;;;;25.52;20.15;;;24.70;1.00;;;;;;5095414;28;20039;-50
2022/10/05 12:27:06;;;;;;;22.02;19.60;;;24.80;1.00;;;;;;5094178;28;20012;-53
2022/10/05 12:29:39;;;;;;;20.00;18.02;;;24.80;1.00;;;;;;5085417;28;20020;-47
2022/10/05 12:32:23;;;;;;;24.58;20.33;;;24.60;1.00;;;;;;5094147;28;20031;-52
2022/10/05 12:34:55;;;;;;;23.70;19.73;;;24.60;1.00;;;;;;5082207;28;20061;-53
2022/10/05 12:37:51;;;;;;;22.83;20.42;;;24.40;1.00;;;;;;5094126;28;20059;-50
2022/10/05 12:40:23;;;;;;;20.60;18.33;;;24.30;1.00;;;;;;5082438;28;20035;-52
2022/10/05 12:42:57;;;;;;;21.90;19.60;;;24.40;1.00;;;;;;5093839;28;20028;-53
2022/10/05 12:45:46;;;;;;;21.67;19.25;;;24.80;1.00;;;;;;5084391;28;20032;-53
2022/10/05 12:48:20;;;;;;;18.65;16.67;;;24.90;1.00;;;;;;5094203;28;20106;-48
2022/10/05 12:50:53;;;;;;;25.02;17.25;;;25.10;1.00;;;;;;5093178;28;20088;-52
2022/10/05 12:53:31;;;;;;;19.57;17.60;;;25.40;1.00;;;;;;5080703;28;20051;-50
2022/10/05 12:56:06;;;;;;;18.83;16.65;;;25.50;1.00;;;;;;5094029;28;20032;-47
2022/10/05 12:58:41;;;;;;;21.45;18.98;;;25.60;1.00;;;;;;5081976;28;20024;-48
2022/10/05 13:01:38;;;;;;;19.63;16.42;;;25.60;1.00;;;;;;5087783;28;20110;-50
2022/10/05 13:04:37;;;;;;;20.08;18.05;;;25.80;1.00;;;;;;5086645;28;20096;-50
2022/10/05 13:07:24;;;;;;;23.45;18.23;;;25.70;1.00;;;;;;5091439;28;20040;-48
2022/10/05 13:10:09;;;;;;;17.98;16.20;;;25.70;1.00;;;;;;5094759;28;20374;-50
2022/10/05 13:12:51;;;;;;;18.42;16.45;;;25.70;1.00;;;;;;5093377;28;20028;-47
2022/10/05 13:15:30;;;;;;;18.42;16.50;;;25.80;1.00;;;;;;5094109;28;20032;-50
2022/10/05 13:18:16;;;;;;;18.25;16.35;;;25.70;1.00;;;;;;5088964;28;20036;-46
2022/10/05 13:20:56;;;;;;;17.50;15.70;;;25.90;1.00;;;;;;5092277;28;20028;-48
2022/10/05 13:23:30;;;;;;;16.90;14.90;;;25.70;1.00;;;;;;5094235;28;20042;-49
2022/10/05 13:26:06;;;;;;;18.73;14.98;;;25.70;1.00;;;;;;5093265;28;20024;-48
2022/10/05 13:28:51;;;;;;;16.23;14.60;;;25.70;1.00;;;;;;5091618;28;20024;-50
2022/10/05 13:31:39;;;;;;;19.35;14.68;;;25.60;1.00;;;;;;5093381;28;20176;-51
2022/10/05 13:34:20;;;;;;;16.95;15.15;;;25.60;1.00;;;;;;5081297;28;20039;-47
2022/10/05 13:37:24;;;;;;;19.80;15.27;;;25.60;1.00;;;;;;5083878;28;20508;-49
2022/10/05 13:40:00;;;;;;;20.17;15.85;;;25.50;1.00;;;;;;5088340;28;20032;-52
2022/10/05 13:42:54;;;;;;;18.38;15.43;;;25.50;1.00;;;;;;5092744;28;20032;-48
2022/10/05 13:45:26;;;;;;;20.52;15.73;;;25.50;1.00;;;;;;5082422;28;20028;-48
2022/10/05 13:47:54;;;;;;;14.15;12.50;;;25.20;1.00;;;;;;5093084;28;20027;-49
2022/10/05 13:50:33;;;;;;;19.15;15.93;;;24.70;1.00;;;;;;5092125;28;20524;-53
2022/10/05 13:53:54;;;;;;;18.00;14.65;;;24.60;1.00;;;;;;5091466;28;20044;-52
2022/10/05 13:56:31;;;;;;;18.05;14.63;;;24.10;1.00;;;;;;5050717;28;20041;-49
2022/10/05 13:59:25;;;;;;;13.25;11.95;;;24.20;1.00;;;;;;5092449;28;20024;-48